createdAt,value
2022-09-18T06:15:05.251Z,89.97
2022-09-18T06:16:05.230Z,90.45
2022-09-18T06:17:05.121Z,90.45
2022-09-18T06:18:05.133Z,90.07
2022-09-18T06:19:05.129Z,90.17
2022-09-18T06:20:05.131Z,90.26
2022-09-18T06:21:05.138Z,90.07
2022-09-18T06:22:05.144Z,90.17
2022-09-18T06:23:05.155Z,89.69
2022-09-18T06:24:05.157Z,89.88
2022-09-18T06:25:05.159Z,90.17
2022-09-18T06:26:05.165Z,90.17
2022-09-18T06:27:05.171Z,90.17
2022-09-18T06:28:05.169Z,90.07
2022-09-18T06:29:05.183Z,89.97
2022-09-18T06:30:05.180Z,89.97
2022-09-18T06:31:05.395Z,89.97
2022-09-18T06:32:05.190Z,89.78
2022-09-18T06:33:05.204Z,89.88
2022-09-18T06:34:05.200Z,89.97
2022-09-18T06:35:05.212Z,90.07
2022-09-18T06:36:05.210Z,89.97
2022-09-18T06:37:05.215Z,89.83
2022-09-18T06:38:05.226Z,89.40
2022-09-18T06:39:05.224Z,89.50
2022-09-18T06:40:05.273Z,89.50
2022-09-18T06:41:05.236Z,89.45
2022-09-18T06:42:05.249Z,89.64
2022-09-18T06:43:05.252Z,88.97
2022-09-18T06:44:05.257Z,89.35
2022-09-18T06:45:05.257Z,89.16
2022-09-18T06:46:05.270Z,89.54
2022-09-18T06:47:05.419Z,89.35
2022-09-18T06:49:02.851Z,89.45
2022-09-18T06:50:02.866Z,89.54
2022-09-18T06:51:02.865Z,89.16
2022-09-18T06:52:02.871Z,89.06
2022-09-18T06:53:02.865Z,88.40
2022-09-18T06:54:03.125Z,88.59
2022-09-18T06:55:02.880Z,88.59
2022-09-18T06:56:02.891Z,88.59
2022-09-18T06:57:02.887Z,88.68
2022-09-18T06:58:02.894Z,88.59
2022-09-18T06:59:02.898Z,88.59
2022-09-18T07:00:04.959Z,88.49
2022-09-18T07:01:02.952Z,88.25
2022-09-18T07:02:03.006Z,87.73
2022-09-18T08:46:03.314Z,50.96
2022-09-18T08:47:03.254Z,50.38
2022-09-18T08:48:03.209Z,51.25
2022-09-18T08:49:03.227Z,51.61
2022-09-18T08:50:03.248Z,51.81
2022-09-18T08:51:03.254Z,51.97
2022-09-18T08:52:03.268Z,52.65
2022-09-18T08:53:03.278Z,52.80
2022-09-18T08:54:03.327Z,52.24
2022-09-18T08:55:03.309Z,51.64
2022-09-18T08:56:03.316Z,51.71
2022-09-18T08:57:03.326Z,52.55
2022-09-18T08:58:03.336Z,51.75
2022-09-18T08:59:03.350Z,51.17
2022-09-18T09:00:03.362Z,51.59
2022-09-18T09:01:03.479Z,51.32
2022-09-18T09:02:03.607Z,49.99
2022-09-18T09:03:03.408Z,49.70
2022-09-18T09:04:03.417Z,50.57
2022-09-18T09:05:03.437Z,50.62
2022-09-18T09:06:03.451Z,50.40
2022-09-18T09:07:03.458Z,49.95
2022-09-18T09:08:03.471Z,49.00
2022-09-18T09:09:03.526Z,48.01
2022-09-18T09:10:03.505Z,48.71
2022-09-18T09:11:03.514Z,47.57
2022-09-18T09:12:03.537Z,47.09
2022-09-18T09:13:03.549Z,45.47
2022-09-18T09:17:09.640Z,45.65
2022-09-18T09:18:09.538Z,45.48
2022-09-18T09:19:09.552Z,45.47
2022-09-18T09:20:09.569Z,45.83
2022-09-18T09:21:11.789Z,45.92
2022-09-18T09:22:09.642Z,46.51
2022-09-18T09:23:09.606Z,46.29
2022-09-18T09:24:09.634Z,46.63
2022-09-18T09:25:09.637Z,47.00
2022-09-18T09:26:09.660Z,48.03
2022-09-18T09:27:09.669Z,47.94
2022-09-18T09:28:12.289Z,48.16
2022-09-18T09:29:09.707Z,47.19
2022-09-18T09:30:09.717Z,46.73
2022-09-18T09:31:09.833Z,47.09
2022-09-18T09:32:09.747Z,47.19
2022-09-18T09:33:09.882Z,47.21
2022-09-18T09:34:09.776Z,46.92
2022-09-18T09:35:09.793Z,46.84
2022-09-18T09:36:09.814Z,45.61
2022-09-18T09:37:09.830Z,44.47
2022-09-18T09:38:09.839Z,45.03
2022-09-18T09:39:09.857Z,46.26
2022-09-18T09:40:09.969Z,46.51
2022-09-18T09:41:09.895Z,47.55
2022-09-18T09:42:09.902Z,48.11
2022-09-18T09:43:09.931Z,48.18
2022-09-18T09:44:09.943Z,49.12
2022-09-18T09:45:09.956Z,49.32
2022-09-18T09:46:10.036Z,49.15
2022-09-18T09:47:10.026Z,49.85
2022-09-18T09:48:09.994Z,49.17
2022-09-18T09:49:10.130Z,49.34
2022-09-18T09:50:10.039Z,49.63
2022-09-18T09:51:10.044Z,49.60
2022-09-18T09:52:10.058Z,50.26
2022-09-18T09:53:10.070Z,50.23
2022-09-18T10:01:45.981Z,54.75
2022-09-18T10:02:45.933Z,54.68
2022-09-18T10:03:45.941Z,54.87
2022-09-18T10:04:46.068Z,55.04
2022-09-18T10:05:49.276Z,55.52
2022-09-18T10:06:45.981Z,55.62
2022-09-18T10:07:46.004Z,55.23
2022-09-18T10:08:46.010Z,55.33
2022-09-18T10:09:46.023Z,54.85
2022-09-18T10:10:46.032Z,54.85
2022-09-18T10:11:46.041Z,55.13
2022-09-18T10:12:46.055Z,55.26
2022-09-18T10:13:46.067Z,54.49
2022-09-18T10:14:46.080Z,53.81
2022-09-18T10:15:46.102Z,54.30
2022-09-18T10:16:46.112Z,54.87
2022-09-18T10:17:46.120Z,54.68
2022-09-18T10:18:46.136Z,54.65
2022-09-18T10:19:46.145Z,54.85
2022-09-18T10:20:46.283Z,55.37
2022-09-18T10:21:46.177Z,56.33
2022-09-18T10:22:46.192Z,56.78
2022-09-18T10:23:46.196Z,57.26
2022-09-18T10:24:46.207Z,58.48
2022-09-18T10:25:46.221Z,59.25
2022-09-18T10:37:48.804Z,56.95
2022-09-18T10:38:48.693Z,56.57
2022-09-18T10:39:48.719Z,54.61
2022-09-18T10:40:48.718Z,55.00
2022-09-18T10:41:48.734Z,55.38
2022-09-18T10:43:41.319Z,55.83
2022-09-18T10:50:34.604Z,57.51
2022-09-18T10:51:33.839Z,57.97
2022-09-18T10:52:33.854Z,57.51
2022-09-18T10:53:33.997Z,57.64
2022-09-18T10:54:36.500Z,57.54
2022-09-18T10:55:33.899Z,56.51
2022-09-18T10:56:33.912Z,56.73
2022-09-18T10:57:33.921Z,56.57
2022-09-18T10:58:33.936Z,55.82
2022-09-18T10:59:33.948Z,55.85
2022-09-18T11:00:34.000Z,55.49
2022-09-18T11:01:34.014Z,55.30
2022-09-18T11:02:34.056Z,55.04
2022-09-18T11:03:34.009Z,54.58
2022-09-18T11:06:34.199Z,53.06
2022-09-18T11:11:43.525Z,52.14
2022-09-18T11:12:43.421Z,51.56
2022-09-18T11:13:43.448Z,51.65
2022-09-18T11:14:43.453Z,52.11
2022-09-18T11:15:43.471Z,52.86
2022-09-18T11:16:43.540Z,52.64
2022-09-18T11:19:53.697Z,54.22
2022-09-18T11:22:01.314Z,54.71
2022-09-18T11:23:01.337Z,55.19
2022-09-18T11:24:01.471Z,55.19
2022-09-18T11:25:01.362Z,55.31
2022-09-18T11:26:01.377Z,55.05
2022-09-18T11:27:01.726Z,54.76
2022-09-18T11:28:01.413Z,54.50
2022-09-18T11:29:01.421Z,54.24
2022-09-18T11:40:58.302Z,46.39
2022-09-18T11:41:58.317Z,46.39
2022-09-18T11:42:58.478Z,46.60
2022-09-18T11:43:58.346Z,45.90
2022-09-18T11:44:58.367Z,44.84
2022-09-18T11:45:58.394Z,45.71
2022-09-18T11:46:58.482Z,43.95
2022-09-18T11:47:58.430Z,44.57
2022-09-18T11:49:02.488Z,45.83
2022-09-18T11:49:58.460Z,46.10
2022-09-18T11:50:58.488Z,46.08
2022-09-18T11:51:58.506Z,46.37
2022-09-18T11:52:58.524Z,47.02
2022-09-18T11:53:58.539Z,47.38
2022-09-18T11:54:58.560Z,48.16
2022-09-18T11:55:58.575Z,48.52
2022-09-18T11:56:58.587Z,49.37
2022-09-18T11:57:58.601Z,49.82
2022-09-18T11:58:58.740Z,50.11
2022-09-18T11:59:58.642Z,51.26
2022-09-18T12:01:02.964Z,50.95
2022-09-18T12:01:58.705Z,51.24
2022-09-18T12:10:22.672Z,52.83
2022-09-18T12:11:22.686Z,53.69
2022-09-18T12:12:22.706Z,53.59
2022-09-18T12:13:22.713Z,54.17
2022-09-18T12:14:22.849Z,53.98
2022-09-18T12:15:22.739Z,54.36
2022-09-18T12:16:22.809Z,54.56
2022-09-18T12:17:22.763Z,54.65
2022-09-18T12:18:22.787Z,54.56
2022-09-18T12:19:22.798Z,55.40
2022-09-18T12:20:22.805Z,56.36
2022-09-18T12:21:22.817Z,56.55
2022-09-18T12:22:22.838Z,56.87
2022-09-18T12:23:22.843Z,57.70
2022-09-18T12:24:22.865Z,57.42
2022-09-18T12:25:22.874Z,57.22
2022-09-18T12:26:22.890Z,57.29
2022-09-18T12:27:27.074Z,57.48
2022-09-18T12:30:00.691Z,58.32
2022-09-18T12:48:03.136Z,65.27
2022-09-18T12:54:59.242Z,64.40
2022-09-18T12:56:01.866Z,64.31
2022-09-18T13:03:31.448Z,63.99
2022-09-18T13:04:28.654Z,62.74
2022-09-18T13:05:28.661Z,63.00
2022-09-18T13:06:28.670Z,63.92
2022-09-18T13:07:28.679Z,64.66
2022-09-18T13:08:28.695Z,65.71
2022-09-18T13:09:28.699Z,66.83
2022-09-18T13:10:28.715Z,67.50
2022-09-18T13:11:28.727Z,68.04
2022-09-18T13:12:28.743Z,68.71
2022-09-18T13:13:28.747Z,69.95
2022-09-18T13:14:28.747Z,70.21
2022-09-18T13:15:28.757Z,70.78
2022-09-18T13:16:29.543Z,71.16
2022-09-18T13:17:29.518Z,71.93
2022-09-18T13:18:29.522Z,72.50
2022-09-18T13:19:29.657Z,73.04
2022-09-18T13:20:29.543Z,73.80
2022-09-18T13:21:29.543Z,74.09
2022-09-18T13:22:29.551Z,74.66
2022-09-18T13:23:29.568Z,74.28
2022-09-18T13:24:29.568Z,74.85
2022-09-18T13:25:29.579Z,75.10
2022-09-18T13:26:29.586Z,75.20
2022-09-18T14:01:35.265Z,77.15
2022-09-18T14:02:35.102Z,76.67
2022-09-18T14:03:35.115Z,76.96
